Aviation Digital Data Service (ADDS)

Output produced by METARs form (2235 UTC 03 March 2015)
found at http://www.aviationweather.gov/adds/metars/
 
KMDT 032156Z 15007KT 4SM -FZRAPL FEW020 OVC038 M02/M05 A3008 RMK AO2 PLE09B28 SLP192 P0001 I1000 T10171050
KMDT 032128Z 15008KT 6SM -FZRAPL FEW022 OVC038 M02/M06 A3010 RMK AO2 PLE09B28 P0000 I1000 T10221056
KMDT 032110Z 14009KT 7SM -FZRA FEW022 OVC038 M02/M06 A3010 RMK AO2 PLE09 PCPN VRY LGT P0000 I1000 T10221056
KMDT 032056Z 14008KT 6SM -FZRAPL FEW020 OVC038 M02/M06 A3011 RMK AO2 SLP201 P0001 60006 I1001 I3003 T10221056 58051
KMDT 031956Z 15011KT 6SM -FZRAPL OVC040 M02/M06 A3016 RMK AO2 SLP219 P0004 I1002 T10221061
KMDT 031856Z 17011KT 8SM -FZRAPL OVC045 M01/M08 A3021 RMK AO2 FZRAB37SNE37PLB37 SLP237 P0001 I1000 T10111078
KMDT 031839Z 16010KT 4SM -FZRAPL OVC045 M01/M08 A3023 RMK AO2 FZRAB37SNE37PLB37 P0001 I1000 T10111083
KMDT 031756Z 15010KT 9SM -SN BKN044 BKN070 M01/M10 A3026 RMK AO2 SNB02 SLP253 P0000 60000 T10111100 11011 21056 58042
KMDT 031656Z 12007KT 10SM BKN049 OVC060 M02/M09 A3032 RMK AO2 SLP272 T10171094
KMDT 031556Z 13007KT 10SM OVC055 M02/M10 A3035 RMK AO2 SLP283 T10221100
KMDT 031456Z 14006KT 10SM BKN100 OVC200 M03/M11 A3039 RMK AO2 SLP295 T10281111 58009
KMDT 031356Z 13004KT 10SM BKN100 OVC200 M04/M12 A3042 RMK AO2 SLP307 T10391117
KMDT 031256Z 13004KT 10SM OVC100 M04/M12 A3040 RMK AO2 SLP301 T10441117
KMDT 031156Z 00000KT 10SM BKN120 M06/M11 A3042 RMK AO2 SLP305 T10561111 11044 21083 50009
KMDT 031056Z 00000KT 10SM BKN150 M05/M12 A3042 RMK AO2 SLP307 T10501117
KMDT 030956Z 00000KT 10SM BKN150 OVC250 M05/M13 A3040 RMK AO2 SLP300 T10501128
KMDT 030856Z 03004KT 10SM SCT150 BKN250 M05/M13 A3039 RMK AO2 SLP294 T10501128 58005
KMDT 030756Z 00000KT 10SM BKN250 M07/M11 A3040 RMK AO2 SLP300 T10721111
KMDT 030656Z 35004KT 10SM SCT250 M07/M12 A3040 RMK AO2 SLP299 T10671117
KMDT 030556Z 32007KT 10SM FEW250 M04/M11 A3040 RMK AO2 SLP300 T10441111 11011 21056 53007
KMDT 030456Z 31009KT 10SM CLR M04/M11 A3039 RMK AO2 SLP295 T10391106 400221044
KMDT 030356Z 30007KT 10SM CLR M03/M11 A3039 RMK AO2 SLP296 T10281106
KMDT 030256Z 31007KT 10SM FEW250 M03/M10 A3038 RMK AO2 SLP293 T10281100 51010
KMDT 030156Z 30009KT 10SM FEW150 SCT250 M03/M10 A3037 RMK AO2 SLP288 T10281100
KMDT 030056Z 30009KT 10SM FEW150 SCT250 M02/M10 A3037 RMK AO2 SLP288 T10221100
KMDT 022356Z 27006KT 10SM SCT250 M01/M11 A3035 RMK AO2 SLP282 T10111106 10022 21017 53021
KMDT 022256Z 30017G20KT 10SM SCT250 00/M10 A3033 RMK AO2 SLP274 T00001100
KMDT 022156Z 32017G24KT 10SM FEW030 FEW250 01/M09 A3030 RMK AO2 SLP264 T00111094
KMDT 022056Z 30017G27KT 10SM FEW030 02/M08 A3029 RMK AO2 PK WND 30027/2050 SLP261 T00171083 53005
KMDT 021956Z 31017G23KT 10SM FEW030 02/M08 A3027 RMK AO2 PK WND 31027/1859 SLP255 T00171083
KMDT 021856Z 31020G26KT 10SM FEW030 02/M08 A3025 RMK AO2 PK WND 30030/1836 SLP247 T00171083
KMDT 021756Z 29018G25KT 10SM FEW030 01/M09 A3027 RMK AO2 PK WND 31028/1703 SLP256 T00111089 10017 21022 50008
KMDT 021656Z 32022G27KT 10SM CLR 01/M09 A3028 RMK AO2 PK WND 30029/1603 SLP256 T00061094
KMDT 021456Z 31024G30KT 10SM FEW040 SCT100 01/M08 A3025 RMK AO2 PK WND 31034/1446 SLP248 T00061078 53042
KMDT 021356Z 32019G29KT 10SM SCT043 BKN150 01/M06 A3021 RMK AO2 PK WND 32031/1341 PRESRR SLP234 T00111056
KMDT 021308Z 31012KT 3SM HZ SCT043 BKN150 00/M03 A3016 RMK AO2 T00001033
KMDT 021256Z 32005KT 1 1/2SM BR SCT045 BKN150 M01/M03 A3016 RMK AO2 SLP216 T10111033
KMDT 021156Z 00000KT 1 1/4SM BR OVC034 M02/M04 A3012 RMK AO2 SLP206 4/002 70034 T10221039 11022 21033 51017
KMDT 021056Z 00000KT 2SM BR OVC034 M02/M04 A3011 RMK AO2 SLP200 T10221039